sensor_id;sensor_type;location;lat;lon;timestamp;temperature;humidity
67273;DHT22;54190;49.770;9.250;2023-02-28T00:00:36;-1.20;99.90
67273;DHT22;54190;49.770;9.250;2023-02-28T00:03:02;-1.20;99.90
67273;DHT22;54190;49.770;9.250;2023-02-28T00:05:28;-1.10;99.90
67273;DHT22;54190;49.770;9.250;2023-02-28T00:07:54;-1.10;99.90
67273;DHT22;54190;49.770;9.250;2023-02-28T00:10:22;-1.20;99.90
67273;DHT22;54190;49.770;9.250;2023-02-28T00:12:49;-1.20;99.90
67273;DHT22;54190;49.770;9.250;2023-02-28T00:15:16;-1.20;99.90
67273;DHT22;54190;49.770;9.250;2023-02-28T00:17:42;-1.30;99.90
67273;DHT22;54190;49.770;9.250;2023-02-28T00:20:09;-1.30;99.90
67273;DHT22;54190;49.770;9.250;2023-02-28T00:22:49;-1.30;99.90
67273;DHT22;54190;49.770;9.250;2023-02-28T00:25:17;-1.40;99.90
67273;DHT22;54190;49.770;9.250;2023-02-28T00:27:44;-1.40;99.90
67273;DHT22;54190;49.770;9.250;2023-02-28T00:30:13;-1.50;99.90
67273;DHT22;54190;49.770;9.250;2023-02-28T00:32:39;-1.40;99.90
67273;DHT22;54190;49.770;9.250;2023-02-28T00:35:06;-1.40;99.90
67273;DHT22;54190;49.770;9.250;2023-02-28T00:37:33;-1.30;99.90
67273;DHT22;54190;49.770;9.250;2023-02-28T00:39:58;-1.30;99.90
67273;DHT22;54190;49.770;9.250;2023-02-28T00:42:24;-1.30;99.90
67273;DHT22;54190;49.770;9.250;2023-02-28T00:44:50;-1.30;99.90
67273;DHT22;54190;49.770;9.250;2023-02-28T00:47:16;-1.40;99.90
67273;DHT22;54190;49.770;9.250;2023-02-28T00:49:42;-1.40;99.90
67273;DHT22;54190;49.770;9.250;2023-02-28T00:52:08;-1.40;99.90
67273;DHT22;54190;49.770;9.250;2023-02-28T00:54:34;-1.30;99.90
67273;DHT22;54190;49.770;9.250;2023-02-28T00:57:00;-1.40;99.90
67273;DHT22;54190;49.770;9.250;2023-02-28T00:59:26;-1.40;99.90
67273;DHT22;54190;49.770;9.250;2023-02-28T01:01:51;-1.50;99.90
67273;DHT22;54190;49.770;9.250;2023-02-28T01:04:17;-1.60;99.90
67273;DHT22;54190;49.770;9.250;2023-02-28T01:06:43;-1.60;99.90
67273;DHT22;54190;49.770;9.250;2023-02-28T01:09:10;-1.50;99.90
67273;DHT22;54190;49.770;9.250;2023-02-28T01:11:36;-1.60;99.90
67273;DHT22;54190;49.770;9.250;2023-02-28T01:14:03;-1.60;99.90
67273;DHT22;54190;49.770;9.250;2023-02-28T01:16:29;-1.60;99.90
67273;DHT22;54190;49.770;9.250;2023-02-28T01:18:55;-1.60;99.90
67273;DHT22;54190;49.770;9.250;2023-02-28T01:21:22;-1.60;99.90
67273;DHT22;54190;49.770;9.250;2023-02-28T01:23:48;-1.70;99.90
67273;DHT22;54190;49.770;9.250;2023-02-28T01:26:18;-1.70;99.90
67273;DHT22;54190;49.770;9.250;2023-02-28T01:28:45;-1.80;99.90
67273;DHT22;54190;49.770;9.250;2023-02-28T01:31:11;-1.90;99.90
67273;DHT22;54190;49.770;9.250;2023-02-28T01:33:37;-1.80;99.90
67273;DHT22;54190;49.770;9.250;2023-02-28T01:36:05;-1.90;99.90
67273;DHT22;54190;49.770;9.250;2023-02-28T01:38:32;-1.90;99.90
67273;DHT22;54190;49.770;9.250;2023-02-28T01:40:58;-1.90;99.90
67273;DHT22;54190;49.770;9.250;2023-02-28T01:43:35;-2.00;99.90
67273;DHT22;54190;49.770;9.250;2023-02-28T01:46:15;-2.00;99.90
67273;DHT22;54190;49.770;9.250;2023-02-28T01:51:44;-2.00;99.90
67273;DHT22;54190;49.770;9.250;2023-02-28T01:54:16;-2.00;99.90
67273;DHT22;54190;49.770;9.250;2023-02-28T01:57:10;-1.90;99.90
67273;DHT22;54190;49.770;9.250;2023-02-28T02:02:15;-1.90;99.90
67273;DHT22;54190;49.770;9.250;2023-02-28T02:05:00;-1.80;99.90
67273;DHT22;54190;49.770;9.250;2023-02-28T02:07:36;-1.90;99.90
67273;DHT22;54190;49.770;9.250;2023-02-28T02:10:18;-2.00;99.90
67273;DHT22;54190;49.770;9.250;2023-02-28T02:21:35;-1.80;99.90
67273;DHT22;54190;49.770;9.250;2023-02-28T02:29:41;-1.90;99.90
67273;DHT22;54190;49.770;9.250;2023-02-28T02:32:47;-1.90;99.90
67273;DHT22;54190;49.770;9.250;2023-02-28T02:35:26;-1.90;99.90
67273;DHT22;54190;49.770;9.250;2023-02-28T02:38:01;-2.00;99.90
67273;DHT22;54190;49.770;9.250;2023-02-28T02:40:35;-2.00;99.90
67273;DHT22;54190;49.770;9.250;2023-02-28T02:43:13;-2.10;99.90
67273;DHT22;54190;49.770;9.250;2023-02-28T02:45:55;-2.20;99.90
67273;DHT22;54190;49.770;9.250;2023-02-28T02:48:26;-2.30;99.90
67273;DHT22;54190;49.770;9.250;2023-02-28T02:50:55;-2.30;99.90
67273;DHT22;54190;49.770;9.250;2023-02-28T02:53:30;-2.20;99.90
67273;DHT22;54190;49.770;9.250;2023-02-28T02:56:01;-2.20;99.90
67273;DHT22;54190;49.770;9.250;2023-02-28T02:58:34;-2.30;99.90
67273;DHT22;54190;49.770;9.250;2023-02-28T03:01:02;-2.50;99.90
67273;DHT22;54190;49.770;9.250;2023-02-28T03:03:31;-2.40;99.90
67273;DHT22;54190;49.770;9.250;2023-02-28T03:06:00;-2.20;99.90
67273;DHT22;54190;49.770;9.250;2023-02-28T03:08:27;-2.10;99.90
67273;DHT22;54190;49.770;9.250;2023-02-28T03:10:59;-2.10;99.90
67273;DHT22;54190;49.770;9.250;2023-02-28T03:30:25;-2.20;99.90
67273;DHT22;54190;49.770;9.250;2023-02-28T03:35:32;-2.20;99.90
67273;DHT22;54190;49.770;9.250;2023-02-28T03:38:16;-2.10;99.90
67273;DHT22;54190;49.770;9.250;2023-02-28T03:41:02;-2.00;99.90
67273;DHT22;54190;49.770;9.250;2023-02-28T03:43:34;-2.00;99.90
67273;DHT22;54190;49.770;9.250;2023-02-28T03:46:06;-2.00;99.90
67273;DHT22;54190;49.770;9.250;2023-02-28T03:48:47;-1.90;99.90
67273;DHT22;54190;49.770;9.250;2023-02-28T03:51:19;-1.90;99.90
67273;DHT22;54190;49.770;9.250;2023-02-28T03:53:50;-1.90;99.90
67273;DHT22;54190;49.770;9.250;2023-02-28T03:56:22;-1.90;99.90
67273;DHT22;54190;49.770;9.250;2023-02-28T03:59:06;-1.90;99.90
67273;DHT22;54190;49.770;9.250;2023-02-28T04:01:39;-1.90;99.90
67273;DHT22;54190;49.770;9.250;2023-02-28T04:04:10;-1.90;99.90
67273;DHT22;54190;49.770;9.250;2023-02-28T04:06:36;-1.90;99.90
67273;DHT22;54190;49.770;9.250;2023-02-28T04:09:03;-2.00;99.90
67273;DHT22;54190;49.770;9.250;2023-02-28T04:11:37;-2.00;99.90
67273;DHT22;54190;49.770;9.250;2023-02-28T04:14:05;-2.00;99.90
67273;DHT22;54190;49.770;9.250;2023-02-28T04:16:32;-2.00;99.90
67273;DHT22;54190;49.770;9.250;2023-02-28T04:18:58;-1.90;99.90
67273;DHT22;54190;49.770;9.250;2023-02-28T04:21:29;-2.00;99.90
67273;DHT22;54190;49.770;9.250;2023-02-28T04:23:55;-2.00;99.90
67273;DHT22;54190;49.770;9.250;2023-02-28T04:26:23;-2.00;99.90
67273;DHT22;54190;49.770;9.250;2023-02-28T04:28:49;-1.90;99.90
67273;DHT22;54190;49.770;9.250;2023-02-28T04:31:15;-1.90;99.90
67273;DHT22;54190;49.770;9.250;2023-02-28T04:33:40;-1.90;99.90
67273;DHT22;54190;49.770;9.250;2023-02-28T04:36:08;-2.00;99.90
67273;DHT22;54190;49.770;9.250;2023-02-28T04:38:35;-2.00;99.90
67273;DHT22;54190;49.770;9.250;2023-02-28T04:41:01;-1.90;99.90
67273;DHT22;54190;49.770;9.250;2023-02-28T04:43:28;-1.90;99.90
67273;DHT22;54190;49.770;9.250;2023-02-28T04:45:58;-1.90;99.90
67273;DHT22;54190;49.770;9.250;2023-02-28T04:48:24;-1.90;99.90
67273;DHT22;54190;49.770;9.250;2023-02-28T04:50:51;-1.90;99.90
67273;DHT22;54190;49.770;9.250;2023-02-28T04:53:17;-1.90;99.90
67273;DHT22;54190;49.770;9.250;2023-02-28T04:55:43;-1.90;99.90
67273;DHT22;54190;49.770;9.250;2023-02-28T04:58:09;-1.90;99.90
67273;DHT22;54190;49.770;9.250;2023-02-28T05:00:35;-2.00;99.90
67273;DHT22;54190;49.770;9.250;2023-02-28T05:03:01;-1.90;99.90
67273;DHT22;54190;49.770;9.250;2023-02-28T05:05:26;-2.00;99.90
67273;DHT22;54190;49.770;9.250;2023-02-28T05:07:52;-2.00;99.90
67273;DHT22;54190;49.770;9.250;2023-02-28T05:10:19;-1.90;99.90
67273;DHT22;54190;49.770;9.250;2023-02-28T05:12:44;-2.00;99.90
67273;DHT22;54190;49.770;9.250;2023-02-28T05:15:14;-1.90;99.90
67273;DHT22;54190;49.770;9.250;2023-02-28T05:17:40;-2.00;99.90
67273;DHT22;54190;49.770;9.250;2023-02-28T05:20:07;-2.00;99.90
67273;DHT22;54190;49.770;9.250;2023-02-28T05:22:36;-2.00;99.90
67273;DHT22;54190;49.770;9.250;2023-02-28T05:25:03;-2.00;99.90
67273;DHT22;54190;49.770;9.250;2023-02-28T05:27:30;-2.10;99.90
67273;DHT22;54190;49.770;9.250;2023-02-28T05:29:56;-2.10;99.90
67273;DHT22;54190;49.770;9.250;2023-02-28T05:32:22;-2.10;99.90
67273;DHT22;54190;49.770;9.250;2023-02-28T05:34:48;-2.10;99.90
67273;DHT22;54190;49.770;9.250;2023-02-28T05:37:14;-2.20;99.90
67273;DHT22;54190;49.770;9.250;2023-02-28T05:39:41;-2.20;99.90
67273;DHT22;54190;49.770;9.250;2023-02-28T05:42:07;-2.10;99.90
67273;DHT22;54190;49.770;9.250;2023-02-28T05:44:33;-2.00;99.90
67273;DHT22;54190;49.770;9.250;2023-02-28T05:46:59;-2.00;99.90
67273;DHT22;54190;49.770;9.250;2023-02-28T05:49:24;-2.00;99.90
67273;DHT22;54190;49.770;9.250;2023-02-28T05:51:50;-2.00;99.90
67273;DHT22;54190;49.770;9.250;2023-02-28T05:54:15;-2.00;99.90
67273;DHT22;54190;49.770;9.250;2023-02-28T05:56:41;-2.00;99.90
67273;DHT22;54190;49.770;9.250;2023-02-28T05:59:13;-2.00;99.90
67273;DHT22;54190;49.770;9.250;2023-02-28T06:01:40;-2.00;99.90
67273;DHT22;54190;49.770;9.250;2023-02-28T06:04:09;-2.10;99.90
67273;DHT22;54190;49.770;9.250;2023-02-28T06:06:35;-2.10;99.90
67273;DHT22;54190;49.770;9.250;2023-02-28T06:09:03;-2.10;99.90
67273;DHT22;54190;49.770;9.250;2023-02-28T06:11:29;-2.00;99.90
67273;DHT22;54190;49.770;9.250;2023-02-28T06:13:59;-2.00;99.90
67273;DHT22;54190;49.770;9.250;2023-02-28T06:16:26;-2.00;99.90
67273;DHT22;54190;49.770;9.250;2023-02-28T06:18:52;-1.90;99.90
67273;DHT22;54190;49.770;9.250;2023-02-28T06:21:21;-2.00;99.90
67273;DHT22;54190;49.770;9.250;2023-02-28T06:23:47;-2.00;99.90
67273;DHT22;54190;49.770;9.250;2023-02-28T06:26:12;-2.10;99.90
67273;DHT22;54190;49.770;9.250;2023-02-28T06:28:38;-2.10;99.90
67273;DHT22;54190;49.770;9.250;2023-02-28T06:31:08;-2.00;99.90
67273;DHT22;54190;49.770;9.250;2023-02-28T06:33:35;-2.00;99.90
67273;DHT22;54190;49.770;9.250;2023-02-28T06:36:01;-2.00;99.90
67273;DHT22;54190;49.770;9.250;2023-02-28T06:38:27;-2.00;99.90
67273;DHT22;54190;49.770;9.250;2023-02-28T06:40:55;-1.90;99.90
67273;DHT22;54190;49.770;9.250;2023-02-28T06:43:21;-1.90;99.90
67273;DHT22;54190;49.770;9.250;2023-02-28T06:45:47;-1.90;99.90
67273;DHT22;54190;49.770;9.250;2023-02-28T06:48:13;-1.90;99.90
67273;DHT22;54190;49.770;9.250;2023-02-28T06:50:39;-1.90;99.90
67273;DHT22;54190;49.770;9.250;2023-02-28T06:53:04;-1.90;99.90
67273;DHT22;54190;49.770;9.250;2023-02-28T06:55:30;-1.90;99.90
67273;DHT22;54190;49.770;9.250;2023-02-28T06:57:57;-1.90;99.90
67273;DHT22;54190;49.770;9.250;2023-02-28T07:00:23;-1.90;99.90
67273;DHT22;54190;49.770;9.250;2023-02-28T07:02:48;-1.90;99.90
67273;DHT22;54190;49.770;9.250;2023-02-28T07:05:14;-1.90;99.90
67273;DHT22;54190;49.770;9.250;2023-02-28T07:07:40;-1.80;99.90
67273;DHT22;54190;49.770;9.250;2023-02-28T07:10:10;-1.70;99.90
67273;DHT22;54190;49.770;9.250;2023-02-28T07:12:37;-1.70;99.90
67273;DHT22;54190;49.770;9.250;2023-02-28T07:15:04;-1.70;99.90
67273;DHT22;54190;49.770;9.250;2023-02-28T07:17:30;-1.70;99.90
67273;DHT22;54190;49.770;9.250;2023-02-28T07:19:55;-1.70;99.90
67273;DHT22;54190;49.770;9.250;2023-02-28T07:22:21;-1.60;99.90
67273;DHT22;54190;49.770;9.250;2023-02-28T07:24:47;-1.50;99.90
67273;DHT22;54190;49.770;9.250;2023-02-28T07:27:12;-1.40;99.90
67273;DHT22;54190;49.770;9.250;2023-02-28T07:29:51;-1.40;99.90
67273;DHT22;54190;49.770;9.250;2023-02-28T07:32:18;-1.30;99.90
67273;DHT22;54190;49.770;9.250;2023-02-28T07:34:44;-1.20;99.90
67273;DHT22;54190;49.770;9.250;2023-02-28T07:37:10;-1.10;99.90
67273;DHT22;54190;49.770;9.250;2023-02-28T07:39:36;-1.10;99.90
67273;DHT22;54190;49.770;9.250;2023-02-28T07:42:05;-1.10;99.90
67273;DHT22;54190;49.770;9.250;2023-02-28T07:44:32;-1.00;99.90
67273;DHT22;54190;49.770;9.250;2023-02-28T07:46:58;-1.00;99.90
67273;DHT22;54190;49.770;9.250;2023-02-28T07:49:23;-0.90;99.90
67273;DHT22;54190;49.770;9.250;2023-02-28T07:51:49;-0.80;99.90
67273;DHT22;54190;49.770;9.250;2023-02-28T07:54:15;-0.90;99.90
67273;DHT22;54190;49.770;9.250;2023-02-28T07:56:40;-0.90;99.90
67273;DHT22;54190;49.770;9.250;2023-02-28T07:59:06;-0.80;99.90
67273;DHT22;54190;49.770;9.250;2023-02-28T08:01:31;-0.70;99.90
67273;DHT22;54190;49.770;9.250;2023-02-28T08:03:57;-0.60;99.90
67273;DHT22;54190;49.770;9.250;2023-02-28T08:06:24;-0.60;99.90
67273;DHT22;54190;49.770;9.250;2023-02-28T08:08:50;-0.50;99.90
67273;DHT22;54190;49.770;9.250;2023-02-28T08:11:17;-0.40;99.80
67273;DHT22;54190;49.770;9.250;2023-02-28T08:13:44;-0.40;99.80
67273;DHT22;54190;49.770;9.250;2023-02-28T08:16:11;-0.20;99.70
67273;DHT22;54190;49.770;9.250;2023-02-28T08:18:36;-0.20;99.50
67273;DHT22;54190;49.770;9.250;2023-02-28T08:21:09;-0.20;99.30
67273;DHT22;54190;49.770;9.250;2023-02-28T08:23:35;-0.10;99.70
67273;DHT22;54190;49.770;9.250;2023-02-28T08:26:01;0.00;99.30
67273;DHT22;54190;49.770;9.250;2023-02-28T08:28:27;0.20;99.20
67273;DHT22;54190;49.770;9.250;2023-02-28T08:30:53;0.20;98.20
67273;DHT22;54190;49.770;9.250;2023-02-28T08:33:19;0.10;98.10
67273;DHT22;54190;49.770;9.250;2023-02-28T08:35:45;0.20;98.80
67273;DHT22;54190;49.770;9.250;2023-02-28T08:38:11;0.30;98.90
67273;DHT22;54190;49.770;9.250;2023-02-28T08:40:36;0.20;98.20
67273;DHT22;54190;49.770;9.250;2023-02-28T08:43:02;0.30;99.10
67273;DHT22;54190;49.770;9.250;2023-02-28T08:45:27;0.40;98.30
67273;DHT22;54190;49.770;9.250;2023-02-28T08:47:56;0.50;98.60
67273;DHT22;54190;49.770;9.250;2023-02-28T08:50:22;0.50;97.70
67273;DHT22;54190;49.770;9.250;2023-02-28T08:52:47;0.60;97.90
67273;DHT22;54190;49.770;9.250;2023-02-28T08:55:13;0.70;97.50
67273;DHT22;54190;49.770;9.250;2023-02-28T08:57:39;0.90;97.00
67273;DHT22;54190;49.770;9.250;2023-02-28T09:00:05;0.90;97.00
67273;DHT22;54190;49.770;9.250;2023-02-28T09:02:31;0.80;96.50
67273;DHT22;54190;49.770;9.250;2023-02-28T09:04:57;0.80;96.80
67273;DHT22;54190;49.770;9.250;2023-02-28T09:07:24;0.80;96.00
67273;DHT22;54190;49.770;9.250;2023-02-28T09:09:50;0.70;96.30
67273;DHT22;54190;49.770;9.250;2023-02-28T09:12:26;0.80;96.60
67273;DHT22;54190;49.770;9.250;2023-02-28T09:14:52;0.90;96.10
67273;DHT22;54190;49.770;9.250;2023-02-28T09:17:19;1.00;95.60
67273;DHT22;54190;49.770;9.250;2023-02-28T09:19:45;1.10;95.90
67273;DHT22;54190;49.770;9.250;2023-02-28T09:22:12;1.20;95.40
67273;DHT22;54190;49.770;9.250;2023-02-28T09:24:38;1.20;95.10
67273;DHT22;54190;49.770;9.250;2023-02-28T09:27:04;1.40;95.10
67273;DHT22;54190;49.770;9.250;2023-02-28T09:29:31;1.50;94.90
67273;DHT22;54190;49.770;9.250;2023-02-28T09:31:57;1.60;95.60
67273;DHT22;54190;49.770;9.250;2023-02-28T09:34:24;1.80;94.00
67273;DHT22;54190;49.770;9.250;2023-02-28T09:36:50;1.80;93.20
67273;DHT22;54190;49.770;9.250;2023-02-28T09:39:21;1.80;93.30
67273;DHT22;54190;49.770;9.250;2023-02-28T09:41:50;1.80;93.20
67273;DHT22;54190;49.770;9.250;2023-02-28T09:44:37;2.00;94.00
67273;DHT22;54190;49.770;9.250;2023-02-28T09:47:31;2.10;93.10
67273;DHT22;54190;49.770;9.250;2023-02-28T09:50:35;2.20;93.20
67273;DHT22;54190;49.770;9.250;2023-02-28T09:53:49;2.30;92.30
67273;DHT22;54190;49.770;9.250;2023-02-28T09:55:55;2.30;91.60
67273;DHT22;54190;49.770;9.250;2023-02-28T10:04:03;2.30;92.20
67273;DHT22;54190;49.770;9.250;2023-02-28T10:06:40;2.30;92.70
67273;DHT22;54190;49.770;9.250;2023-02-28T10:09:24;2.40;92.20
67273;DHT22;54190;49.770;9.250;2023-02-28T10:11:53;2.40;91.40
67273;DHT22;54190;49.770;9.250;2023-02-28T10:14:23;2.40;91.80
67273;DHT22;54190;49.770;9.250;2023-02-28T10:17:04;2.20;90.40
67273;DHT22;54190;49.770;9.250;2023-02-28T10:22:26;2.00;91.30
67273;DHT22;54190;49.770;9.250;2023-02-28T10:24:55;2.00;90.90
67273;DHT22;54190;49.770;9.250;2023-02-28T10:27:31;2.10;91.10
67273;DHT22;54190;49.770;9.250;2023-02-28T10:29:59;2.10;91.80
67273;DHT22;54190;49.770;9.250;2023-02-28T10:32:33;2.20;92.00
67273;DHT22;54190;49.770;9.250;2023-02-28T10:35:23;2.40;91.80
67273;DHT22;54190;49.770;9.250;2023-02-28T10:38:00;2.50;90.60
67273;DHT22;54190;49.770;9.250;2023-02-28T10:40:35;2.50;91.80
67273;DHT22;54190;49.770;9.250;2023-02-28T10:43:22;2.50;90.80
67273;DHT22;54190;49.770;9.250;2023-02-28T10:46:15;2.60;90.30
67273;DHT22;54190;49.770;9.250;2023-02-28T10:49:20;2.60;90.60
67273;DHT22;54190;49.770;9.250;2023-02-28T10:51:47;2.90;90.10
67273;DHT22;54190;49.770;9.250;2023-02-28T10:54:35;2.90;90.20
67273;DHT22;54190;49.770;9.250;2023-02-28T10:59:43;2.90;90.80
67273;DHT22;54190;49.770;9.250;2023-02-28T11:02:39;2.50;90.30
67273;DHT22;54190;49.770;9.250;2023-02-28T11:05:33;2.30;91.00
67273;DHT22;54190;49.770;9.250;2023-02-28T11:08:13;2.20;91.20
67273;DHT22;54190;49.770;9.250;2023-02-28T11:10:45;2.10;91.70
67273;DHT22;54190;49.770;9.250;2023-02-28T11:13:20;2.10;91.40
67273;DHT22;54190;49.770;9.250;2023-02-28T11:15:53;2.10;91.10
67273;DHT22;54190;49.770;9.250;2023-02-28T11:20:51;2.10;91.50
67273;DHT22;54190;49.770;9.250;2023-02-28T11:23:18;2.50;92.00
67273;DHT22;54190;49.770;9.250;2023-02-28T11:25:51;2.60;90.80
67273;DHT22;54190;49.770;9.250;2023-02-28T11:28:31;2.60;91.00
67273;DHT22;54190;49.770;9.250;2023-02-28T11:33:53;2.70;91.00
67273;DHT22;54190;49.770;9.250;2023-02-28T11:36:20;2.70;91.10
67273;DHT22;54190;49.770;9.250;2023-02-28T11:38:47;2.90;91.20
67273;DHT22;54190;49.770;9.250;2023-02-28T11:41:46;3.30;91.80
67273;DHT22;54190;49.770;9.250;2023-02-28T11:53:01;4.20;87.00
67273;DHT22;54190;49.770;9.250;2023-02-28T12:01:03;3.60;86.10
67273;DHT22;54190;49.770;9.250;2023-02-28T12:06:37;3.20;88.30
67273;DHT22;54190;49.770;9.250;2023-02-28T12:09:46;3.20;87.90
67273;DHT22;54190;49.770;9.250;2023-02-28T12:12:39;3.10;87.50
67273;DHT22;54190;49.770;9.250;2023-02-28T12:15:24;2.80;86.60
67273;DHT22;54190;49.770;9.250;2023-02-28T12:26:43;2.70;90.60
67273;DHT22;54190;49.770;9.250;2023-02-28T12:29:29;3.00;87.90
67273;DHT22;54190;49.770;9.250;2023-02-28T12:32:04;3.10;87.50
67273;DHT22;54190;49.770;9.250;2023-02-28T12:34:44;3.30;90.00
67273;DHT22;54190;49.770;9.250;2023-02-28T12:37:20;3.70;87.50
67273;DHT22;54190;49.770;9.250;2023-02-28T12:39:51;3.90;87.80
67273;DHT22;54190;49.770;9.250;2023-02-28T12:42:27;4.20;86.80
67273;DHT22;54190;49.770;9.250;2023-02-28T12:45:00;4.20;84.10
67273;DHT22;54190;49.770;9.250;2023-02-28T12:47:26;4.10;84.90
67273;DHT22;54190;49.770;9.250;2023-02-28T12:49:58;3.90;83.00
67273;DHT22;54190;49.770;9.250;2023-02-28T12:55:36;3.70;83.40
67273;DHT22;54190;49.770;9.250;2023-02-28T13:01:13;3.70;84.40
67273;DHT22;54190;49.770;9.250;2023-02-28T13:09:10;4.50;84.80
67273;DHT22;54190;49.770;9.250;2023-02-28T13:17:09;5.00;81.50
67273;DHT22;54190;49.770;9.250;2023-02-28T13:19:38;5.20;80.10
67273;DHT22;54190;49.770;9.250;2023-02-28T13:22:05;5.30;78.10
67273;DHT22;54190;49.770;9.250;2023-02-28T13:24:42;5.40;79.20
67273;DHT22;54190;49.770;9.250;2023-02-28T13:29:37;5.60;79.90
67273;DHT22;54190;49.770;9.250;2023-02-28T13:34:36;5.90;78.10
67273;DHT22;54190;49.770;9.250;2023-02-28T13:50:39;5.50;76.30
67273;DHT22;54190;49.770;9.250;2023-02-28T13:55:59;5.60;76.00
67273;DHT22;54190;49.770;9.250;2023-02-28T13:58:41;5.60;73.90
67273;DHT22;54190;49.770;9.250;2023-02-28T14:07:03;5.50;75.30
67273;DHT22;54190;49.770;9.250;2023-02-28T14:09:37;5.60;74.40
67273;DHT22;54190;49.770;9.250;2023-02-28T14:21:26;5.20;74.10
67273;DHT22;54190;49.770;9.250;2023-02-28T14:26:47;5.40;74.10
67273;DHT22;54190;49.770;9.250;2023-02-28T14:32:10;5.70;69.90
67273;DHT22;54190;49.770;9.250;2023-02-28T14:37:25;5.70;71.60
67273;DHT22;54190;49.770;9.250;2023-02-28T14:39:52;5.60;68.70
67273;DHT22;54190;49.770;9.250;2023-02-28T14:42:35;5.30;70.40
67273;DHT22;54190;49.770;9.250;2023-02-28T14:45:04;5.00;71.10
67273;DHT22;54190;49.770;9.250;2023-02-28T14:47:34;5.10;72.60
67273;DHT22;54190;49.770;9.250;2023-02-28T14:50:02;5.40;75.00
67273;DHT22;54190;49.770;9.250;2023-02-28T14:52:32;5.60;71.70
67273;DHT22;54190;49.770;9.250;2023-02-28T14:55:04;5.80;72.50
67273;DHT22;54190;49.770;9.250;2023-02-28T14:57:33;5.60;70.60
67273;DHT22;54190;49.770;9.250;2023-02-28T15:00:15;5.40;70.90
67273;DHT22;54190;49.770;9.250;2023-02-28T15:02:42;5.30;74.80
67273;DHT22;54190;49.770;9.250;2023-02-28T15:07:43;5.60;72.00
67273;DHT22;54190;49.770;9.250;2023-02-28T15:10:25;5.50;70.00
67273;DHT22;54190;49.770;9.250;2023-02-28T15:12:58;5.40;70.20
67273;DHT22;54190;49.770;9.250;2023-02-28T15:15:32;5.40;73.50
67273;DHT22;54190;49.770;9.250;2023-02-28T15:18:03;5.40;71.90
67273;DHT22;54190;49.770;9.250;2023-02-28T15:20:31;5.60;74.00
67273;DHT22;54190;49.770;9.250;2023-02-28T15:22:57;5.70;70.10
67273;DHT22;54190;49.770;9.250;2023-02-28T15:25:24;5.60;71.30
67273;DHT22;54190;49.770;9.250;2023-02-28T15:27:53;5.50;72.40
67273;DHT22;54190;49.770;9.250;2023-02-28T15:30:27;5.60;72.00
67273;DHT22;54190;49.770;9.250;2023-02-28T15:35:31;5.70;72.80
67273;DHT22;54190;49.770;9.250;2023-02-28T15:38:00;6.00;70.90
67273;DHT22;54190;49.770;9.250;2023-02-28T15:40:38;6.00;72.10
67273;DHT22;54190;49.770;9.250;2023-02-28T15:45:39;6.30;70.80
67273;DHT22;54190;49.770;9.250;2023-02-28T15:48:23;6.40;70.00
67273;DHT22;54190;49.770;9.250;2023-02-28T15:53:45;6.10;70.70
67273;DHT22;54190;49.770;9.250;2023-02-28T15:56:43;5.90;68.60
67273;DHT22;54190;49.770;9.250;2023-02-28T15:59:19;5.70;70.10
67273;DHT22;54190;49.770;9.250;2023-02-28T16:01:46;5.80;69.80
67273;DHT22;54190;49.770;9.250;2023-02-28T16:04:19;5.70;69.90
67273;DHT22;54190;49.770;9.250;2023-02-28T16:09:23;5.70;71.60
67273;DHT22;54190;49.770;9.250;2023-02-28T16:11:51;5.60;70.60
67273;DHT22;54190;49.770;9.250;2023-02-28T16:14:23;5.40;71.20
67273;DHT22;54190;49.770;9.250;2023-02-28T16:16:52;5.40;73.10
67273;DHT22;54190;49.770;9.250;2023-02-28T16:19:18;5.40;73.10
67273;DHT22;54190;49.770;9.250;2023-02-28T16:21:44;5.30;72.00
67273;DHT22;54190;49.770;9.250;2023-02-28T16:24:10;5.30;71.40
67273;DHT22;54190;49.770;9.250;2023-02-28T16:26:38;5.00;72.40
67273;DHT22;54190;49.770;9.250;2023-02-28T16:29:06;4.80;73.70
67273;DHT22;54190;49.770;9.250;2023-02-28T16:31:37;4.80;73.70
67273;DHT22;54190;49.770;9.250;2023-02-28T16:34:03;4.70;76.00
67273;DHT22;54190;49.770;9.250;2023-02-28T16:36:32;4.80;76.70
67273;DHT22;54190;49.770;9.250;2023-02-28T16:38:58;4.80;74.20
67273;DHT22;54190;49.770;9.250;2023-02-28T16:41:26;4.50;74.90
67273;DHT22;54190;49.770;9.250;2023-02-28T16:43:54;4.40;75.10
67273;DHT22;54190;49.770;9.250;2023-02-28T16:46:25;4.20;74.60
67273;DHT22;54190;49.770;9.250;2023-02-28T16:48:52;4.10;75.40
67273;DHT22;54190;49.770;9.250;2023-02-28T16:51:18;4.00;75.80
67273;DHT22;54190;49.770;9.250;2023-02-28T16:53:45;4.00;77.80
67273;DHT22;54190;49.770;9.250;2023-02-28T16:56:19;4.00;79.00
67273;DHT22;54190;49.770;9.250;2023-02-28T16:58:46;4.00;76.90
67273;DHT22;54190;49.770;9.250;2023-02-28T17:01:12;4.00;77.20
67273;DHT22;54190;49.770;9.250;2023-02-28T17:03:37;3.90;77.60
67273;DHT22;54190;49.770;9.250;2023-02-28T17:06:04;3.80;77.10
67273;DHT22;54190;49.770;9.250;2023-02-28T17:08:31;3.70;78.20
67273;DHT22;54190;49.770;9.250;2023-02-28T17:10:58;3.40;78.70
67273;DHT22;54190;49.770;9.250;2023-02-28T17:13:24;3.30;79.30
67273;DHT22;54190;49.770;9.250;2023-02-28T17:15:50;3.30;80.10
67273;DHT22;54190;49.770;9.250;2023-02-28T17:18:18;3.20;81.10
67273;DHT22;54190;49.770;9.250;2023-02-28T17:20:45;3.10;80.40
67273;DHT22;54190;49.770;9.250;2023-02-28T17:23:11;3.00;82.00
67273;DHT22;54190;49.770;9.250;2023-02-28T17:25:37;3.00;82.30
67273;DHT22;54190;49.770;9.250;2023-02-28T17:28:03;2.90;81.80
67273;DHT22;54190;49.770;9.250;2023-02-28T17:30:29;2.90;82.50
67273;DHT22;54190;49.770;9.250;2023-02-28T17:32:57;2.90;85.40
67273;DHT22;54190;49.770;9.250;2023-02-28T17:35:23;2.80;84.70
67273;DHT22;54190;49.770;9.250;2023-02-28T17:37:49;2.80;86.10
67273;DHT22;54190;49.770;9.250;2023-02-28T17:40:19;2.80;86.00
67273;DHT22;54190;49.770;9.250;2023-02-28T17:42:45;2.80;86.60
67273;DHT22;54190;49.770;9.250;2023-02-28T17:45:12;2.70;87.70
67273;DHT22;54190;49.770;9.250;2023-02-28T17:47:38;2.70;89.80
67273;DHT22;54190;49.770;9.250;2023-02-28T17:50:05;2.60;91.20
67273;DHT22;54190;49.770;9.250;2023-02-28T17:52:31;2.60;92.70
67273;DHT22;54190;49.770;9.250;2023-02-28T17:55:03;2.60;93.40
67273;DHT22;54190;49.770;9.250;2023-02-28T17:57:29;2.50;93.60
67273;DHT22;54190;49.770;9.250;2023-02-28T17:59:55;2.50;94.50
67273;DHT22;54190;49.770;9.250;2023-02-28T18:02:20;2.40;94.60
67273;DHT22;54190;49.770;9.250;2023-02-28T18:04:46;2.40;95.00
67273;DHT22;54190;49.770;9.250;2023-02-28T18:07:12;2.30;95.50
67273;DHT22;54190;49.770;9.250;2023-02-28T18:09:37;2.30;95.80
67273;DHT22;54190;49.770;9.250;2023-02-28T18:12:03;2.30;95.70
67273;DHT22;54190;49.770;9.250;2023-02-28T18:14:29;2.10;96.00
67273;DHT22;54190;49.770;9.250;2023-02-28T18:16:55;2.10;96.30
67273;DHT22;54190;49.770;9.250;2023-02-28T18:19:22;2.00;96.60
67273;DHT22;54190;49.770;9.250;2023-02-28T18:21:50;1.90;96.80
67273;DHT22;54190;49.770;9.250;2023-02-28T18:24:18;1.90;97.10
67273;DHT22;54190;49.770;9.250;2023-02-28T18:26:45;1.70;97.20
67273;DHT22;54190;49.770;9.250;2023-02-28T18:29:17;1.70;97.30
67273;DHT22;54190;49.770;9.250;2023-02-28T18:31:43;1.50;96.50